Aérodrome :
LOGIN :

S'inscrire | Disclaimer

   EN    FR    IT 

 










Légende :    VFR   VFR Marginal   IFR   IFR Intensif   IFR Très Intensif
Visi : 
Plafond : 
>= 8 km
>= 3000ft
5 à 8 km
1000 à 3000 ft
1500m à 5 km
500 à 1000 ft
800 à 1500m
200 à 500 ft
< 800m
< 200 ft
Symboles :   Orages  Brouillard  Fortes neiges  Fortes précipitations  Vent > 20 kt
SIGMETs :   Divers  Orages  Givrage  Turbulence  Onde Orograph.  Cendres Volcan.







- Altitude de l'aérodrome : 249 ft


EGOS - RAF Shawbury

DERNIER METAR :
  • 232150Z AUTO 22010KT 9999 NCD 14/11 Q1014

METARs EXPIRÉS :
  • 232050Z AUTO 23011KT 9999 NCD 14/11 Q1014
  • 231950Z AUTO 24012KT 9999 NCD 15/11 Q1014

Prévision TAF périmée.
Pas de NOTAMs connus pour ce terrain.
3 SIGMETs publiés pour la FIR London (EGTT) :
 
Orages noyés dans la masse
EGTT SIGMET 08 VALID 231910/232230 EGRR
EGTT LONDON FIR EMBD TS FCST WI N5334 E00343 - N5314 E00247 - N5500 E00211 - N5500 E00340 - N5345 E00353 - N5334 E00343 TOP FL320 MOV ENE 20KT NC=
Annulation du SIGMET 06
EGTT SIGMET 07 VALID 231906/232230 EGRR
EGTT LONDON FIR CNL SIGMET 06 231830/232230=
SIGMET 06  ANNULÉ :
Orages noyés dans la masse
EGTT SIGMET 06 VALID 231830/232230 EGRR
EGTT LONDON FIR EMBD TS OBS WI N5355 E00252 - N5350 E00232 - N5500 E00151 - N5500 E00317 - N5355 E00252 TOP FL350 MOV ENE 20KT NC=



MET'MAP, la Météo Aéronautique d'un coup d'oeil ! - Copyright ORBIFLY Décembre 2007 - Disclaimer

ORBIFLY MET'MAP TEAM :

Programmation & Développement : Alexandra Zaïnal
Conception & Développement : Baudouin d'Aumeries
Co-Programmation & Développement : Marc-Olivier Méhu
Soutien technique & logistique : Manuel Goepfert

Contact : metmap@orbifly.com




SOURCES & CREDITS :

   NOAA